Time;durP1;ratioP1;P1;durP2;ratioP2;P2;SDS_P1;SDS_P2;PMS_P1;PMS_P2;Temp;Humidity;BMP_temperature;BMP_pressure;BME280_temperature;BME280_humidity;BME280_pressure;Samples;Min_cycle;Max_cycle;Signal;HPM_P1;HPM_P2
2023/05/27 00:01:28;;;;;;;22.50;6.63;;;;;;;;;;5032929;28;20328;-82
2023/05/27 00:03:55;;;;;;;23.17;7.37;;;;;;;;;;5033609;28;20259;-81
2023/05/27 00:06:22;;;;;;;23.67;7.73;;;;;;;;;;5033096;28;20279;-82
2023/05/27 00:08:50;;;;;;;21.27;7.47;;;;;;;;;;5033013;28;20224;-83
2023/05/27 00:11:17;;;;;;;18.27;6.63;;;;;;;;;;5031507;28;20278;-82
2023/05/27 00:13:44;;;;;;;18.37;6.70;;;;;;;;;;5033929;28;20192;-82
2023/05/27 00:16:12;;;;;;;19.30;6.40;;;;;;;;;;5052522;28;20200;-82
2023/05/27 00:18:40;;;;;;;21.63;7.00;;;;;;;;;;5052482;28;20330;-82
2023/05/27 00:21:07;;;;;;;23.00;7.03;;;;;;;;;;5052693;28;20226;-82
2023/05/27 00:23:35;;;;;;;21.90;7.10;;;;;;;;;;5052627;28;20291;-82
2023/05/27 00:26:02;;;;;;;23.13;7.20;;;;;;;;;;5052092;28;20196;-82
2023/05/27 00:28:31;;;;;;;20.67;7.03;;;;;;;;;;5052711;28;20637;-82
2023/05/27 00:30:58;;;;;;;22.07;6.93;;;;;;;;;;5052443;28;20292;-82
2023/05/27 00:33:27;;;;;;;19.93;7.00;;;;;;;;;;5052393;28;20331;-82
2023/05/27 00:35:54;;;;;;;22.80;7.17;;;;;;;;;;5031724;28;20207;-82
2023/05/27 00:38:21;;;;;;;19.87;6.67;;;;;;;;;;5032119;28;20544;-82
2023/05/27 00:40:48;;;;;;;19.73;7.07;;;;;;;;;;5032040;28;20283;-82
2023/05/27 00:43:15;;;;;;;21.80;7.20;;;;;;;;;;5032655;28;20234;-82
2023/05/27 00:45:42;;;;;;;21.43;6.63;;;;;;;;;;5032295;28;20612;-82
2023/05/27 00:48:10;;;;;;;23.33;7.03;;;;;;;;;;5032189;28;20224;-82
2023/05/27 00:50:38;;;;;;;19.03;6.70;;;;;;;;;;5032263;28;20224;-82
2023/05/27 00:53:05;;;;;;;24.90;7.63;;;;;;;;;;5032022;28;20200;-82
2023/05/27 00:55:33;;;;;;;18.33;6.80;;;;;;;;;;5032083;28;20200;-82
2023/05/27 00:58:00;;;;;;;19.00;7.33;;;;;;;;;;5031796;28;20220;-82
2023/05/27 01:00:28;;;;;;;22.30;7.07;;;;;;;;;;5031224;28;20204;-82
2023/05/27 01:02:55;;;;;;;18.67;6.67;;;;;;;;;;5031392;28;20319;-82
2023/05/27 01:05:22;;;;;;;22.00;6.90;;;;;;;;;;5032150;28;20197;-82
2023/05/27 01:08:01;;;;;;;20.27;6.40;;;;;;;;;;5031165;28;20291;-82
2023/05/27 01:10:31;;;;;;;24.30;7.50;;;;;;;;;;5031089;28;20665;-82
2023/05/27 01:13:01;;;;;;;20.87;7.33;;;;;;;;;;5032004;28;20339;-82
2023/05/27 01:15:30;;;;;;;22.17;6.63;;;;;;;;;;5046901;28;20203;-82
2023/05/27 01:17:58;;;;;;;24.23;8.03;;;;;;;;;;5051441;28;20254;-82
2023/05/27 01:20:25;;;;;;;15.50;6.23;;;;;;;;;;5051887;28;20278;-83
2023/05/27 01:22:57;;;;;;;21.90;7.20;;;;;;;;;;5050581;28;20727;-81
2023/05/27 01:25:24;;;;;;;24.40;7.67;;;;;;;;;;5051190;28;20192;-82
2023/05/27 01:27:52;;;;;;;18.37;6.97;;;;;;;;;;5051842;28;20238;-82
2023/05/27 01:30:20;;;;;;;19.40;7.03;;;;;;;;;;5031916;28;20292;-82
2023/05/27 01:32:51;;;;;;;20.03;7.10;;;;;;;;;;5031312;28;20692;-82
2023/05/27 01:35:19;;;;;;;18.93;6.37;;;;;;;;;;5031324;28;20287;-83
2023/05/27 01:37:46;;;;;;;17.80;6.63;;;;;;;;;;5027810;28;20301;-82
2023/05/27 01:40:16;;;;;;;17.57;7.07;;;;;;;;;;5021355;28;20683;-81
2023/05/27 01:42:44;;;;;;;18.73;7.37;;;;;;;;;;5014421;28;20597;-82
2023/05/27 01:45:12;;;;;;;21.27;6.73;;;;;;;;;;5031476;28;20618;-81
2023/05/27 01:47:40;;;;;;;19.40;6.37;;;;;;;;;;5031361;28;20207;-81
2023/05/27 01:50:07;;;;;;;15.40;6.33;;;;;;;;;;5031334;28;20192;-81
2023/05/27 01:52:35;;;;;;;21.00;7.07;;;;;;;;;;5031285;28;20201;-81
2023/05/27 01:55:02;;;;;;;21.70;7.40;;;;;;;;;;5030699;28;20204;-82
2023/05/27 01:57:31;;;;;;;20.57;6.60;;;;;;;;;;5031070;28;20768;-82
2023/05/27 01:59:58;;;;;;;18.53;7.30;;;;;;;;;;5029419;28;20295;-82
2023/05/27 02:02:25;;;;;;;14.30;6.30;;;;;;;;;;5031313;28;20282;-83
2023/05/27 02:04:53;;;;;;;21.07;6.77;;;;;;;;;;5030893;28;20303;-81
2023/05/27 02:07:20;;;;;;;20.10;7.20;;;;;;;;;;5030377;28;20295;-82
2023/05/27 02:09:47;;;;;;;22.07;7.87;;;;;;;;;;5030905;28;20287;-83
2023/05/27 02:12:14;;;;;;;18.90;6.97;;;;;;;;;;5031558;28;20287;-83
2023/05/27 02:14:44;;;;;;;20.17;6.23;;;;;;;;;;5039593;28;20206;-82
2023/05/27 02:17:14;;;;;;;21.57;7.07;;;;;;;;;;5050956;28;20286;-82
2023/05/27 02:19:41;;;;;;;17.20;6.83;;;;;;;;;;5050394;28;20743;-82
2023/05/27 02:22:09;;;;;;;16.93;6.60;;;;;;;;;;5054453;28;20310;-82
2023/05/27 02:24:36;;;;;;;22.53;6.00;;;;;;;;;;5054893;28;20203;-82
2023/05/27 02:27:03;;;;;;;20.30;6.80;;;;;;;;;;5054653;28;20196;-81
2023/05/27 02:29:30;;;;;;;13.33;6.17;;;;;;;;;;5042556;28;20203;-83
2023/05/27 02:31:59;;;;;;;24.07;6.87;;;;;;;;;;5034628;28;20220;-82
2023/05/27 02:34:26;;;;;;;21.50;6.33;;;;;;;;;;5034263;28;20232;-82
2023/05/27 02:36:53;;;;;;;17.03;6.70;;;;;;;;;;5034113;28;20295;-81
2023/05/27 02:39:20;;;;;;;15.87;5.87;;;;;;;;;;5034660;28;20200;-82
2023/05/27 02:41:49;;;;;;;17.83;6.20;;;;;;;;;;5034949;28;20200;-82
2023/05/27 02:44:16;;;;;;;19.50;6.27;;;;;;;;;;5034820;28;20283;-82
2023/05/27 02:46:43;;;;;;;18.13;6.60;;;;;;;;;;5034255;28;20227;-82
2023/05/27 02:49:12;;;;;;;16.23;6.63;;;;;;;;;;5034092;28;20279;-81
2023/05/27 02:51:39;;;;;;;17.93;6.70;;;;;;;;;;5034329;28;20295;-80
2023/05/27 02:54:06;;;;;;;18.00;6.40;;;;;;;;;;5034338;28;20223;-82
2023/05/27 02:56:34;;;;;;;21.13;6.57;;;;;;;;;;5034423;28;20208;-82
2023/05/27 02:59:01;;;;;;;19.63;6.47;;;;;;;;;;5034070;28;20287;-82
2023/05/27 03:01:28;;;;;;;17.97;6.43;;;;;;;;;;5034164;28;20747;-81
2023/05/27 03:03:55;;;;;;;17.47;6.13;;;;;;;;;;5033708;28;20305;-81
2023/05/27 03:06:24;;;;;;;25.77;6.90;;;;;;;;;;5033918;28;20651;-81
2023/05/27 03:08:51;;;;;;;22.10;6.80;;;;;;;;;;5034533;28;20319;-80
2023/05/27 03:11:18;;;;;;;22.20;6.30;;;;;;;;;;5034170;28;20231;-81
2023/05/27 03:13:45;;;;;;;16.53;6.17;;;;;;;;;;5035117;28;20288;-81
2023/05/27 03:16:12;;;;;;;19.20;6.37;;;;;;;;;;5053723;28;20200;-81
2023/05/27 03:18:40;;;;;;;16.67;6.13;;;;;;;;;;5053551;28;20193;-82
2023/05/27 03:21:07;;;;;;;18.87;6.63;;;;;;;;;;5053996;28;20279;-82
2023/05/27 03:23:35;;;;;;;14.53;6.60;;;;;;;;;;5053822;28;20262;-82
2023/05/27 03:26:03;;;;;;;14.80;6.10;;;;;;;;;;5053673;28;20283;-82
2023/05/27 03:28:30;;;;;;;17.57;6.67;;;;;;;;;;5047606;28;20732;-82
2023/05/27 03:30:57;;;;;;;11.90;6.13;;;;;;;;;;5033844;28;20192;-82
2023/05/27 03:33:25;;;;;;;17.63;6.77;;;;;;;;;;5032322;28;20650;-82
2023/05/27 03:35:52;;;;;;;17.27;5.97;;;;;;;;;;5033596;28;20279;-81
2023/05/27 03:38:19;;;;;;;16.97;6.50;;;;;;;;;;5033570;28;20204;-83
2023/05/27 03:40:47;;;;;;;16.60;6.10;;;;;;;;;;5033568;28;20286;-82
2023/05/27 03:43:15;;;;;;;20.43;6.90;;;;;;;;;;5033393;28;20322;-82
2023/05/27 03:45:42;;;;;;;17.97;6.07;;;;;;;;;;5033952;28;20596;-82
2023/05/27 03:48:09;;;;;;;19.03;6.63;;;;;;;;;;5032958;28;20203;-81
2023/05/27 03:50:36;;;;;;;18.47;6.70;;;;;;;;;;5026020;28;20224;-82
2023/05/27 03:53:03;;;;;;;19.80;6.27;;;;;;;;;;5033053;28;20204;-81
2023/05/27 03:55:31;;;;;;;18.10;6.27;;;;;;;;;;5032814;28;20196;-82
2023/05/27 03:57:59;;;;;;;18.13;6.10;;;;;;;;;;5033290;28;20303;-82
2023/05/27 04:00:28;;;;;;;19.83;6.37;;;;;;;;;;5033126;28;20283;-82
2023/05/27 04:02:56;;;;;;;17.63;7.03;;;;;;;;;;5032948;28;20231;-82
2023/05/27 04:05:23;;;;;;;16.40;6.33;;;;;;;;;;5032922;28;20208;-82
2023/05/27 04:07:51;;;;;;;20.33;6.40;;;;;;;;;;5033027;28;20287;-81
2023/05/27 04:10:18;;;;;;;21.40;6.70;;;;;;;;;;5032840;28;20588;-83
2023/05/27 04:12:46;;;;;;;13.67;6.37;;;;;;;;;;5032928;28;20287;-82
2023/05/27 04:15:14;;;;;;;18.03;6.93;;;;;;;;;;5043854;28;20307;-82
2023/05/27 04:17:42;;;;;;;18.33;6.80;;;;;;;;;;5032884;28;20203;-82
2023/05/27 04:20:13;;;;;;;20.00;7.03;;;;;;;;;;5031726;28;20292;-82
2023/05/27 04:22:41;;;;;;;20.80;6.83;;;;;;;;;;5032644;28;20205;-82
2023/05/27 04:25:08;;;;;;;19.33;6.93;;;;;;;;;;5032938;28;20274;-81
2023/05/27 04:27:36;;;;;;;19.37;6.73;;;;;;;;;;5032713;28;20669;-82
2023/05/27 04:30:03;;;;;;;15.73;6.50;;;;;;;;;;5032909;28;20192;-82
2023/05/27 04:32:32;;;;;;;15.53;6.13;;;;;;;;;;5031978;28;20692;-82
2023/05/27 04:35:00;;;;;;;22.87;6.60;;;;;;;;;;5031920;28;20251;-83
2023/05/27 04:37:28;;;;;;;14.33;6.23;;;;;;;;;;5032876;28;20208;-82
2023/05/27 04:39:56;;;;;;;16.80;6.30;;;;;;;;;;5032222;28;20196;-82
2023/05/27 04:42:24;;;;;;;18.77;6.93;;;;;;;;;;5032809;28;20203;-81
2023/05/27 04:44:51;;;;;;;20.87;6.80;;;;;;;;;;5030639;28;20330;-83
2023/05/27 04:47:20;;;;;;;17.13;6.70;;;;;;;;;;5032056;28;20200;-83
2023/05/27 04:49:49;;;;;;;14.77;6.20;;;;;;;;;;5031630;28;20204;-83
2023/05/27 04:52:21;;;;;;;18.97;6.83;;;;;;;;;;5032161;28;20279;-82
2023/05/27 04:54:48;;;;;;;16.00;6.50;;;;;;;;;;5032270;28;20201;-82
2023/05/27 04:57:18;;;;;;;15.23;7.30;;;;;;;;;;5031982;28;20205;-82
2023/05/27 05:00:17;;;;;;;17.87;6.67;;;;;;;;;;5031630;28;20630;-81
2023/05/27 05:02:47;;;;;;;19.27;7.17;;;;;;;;;;5031811;28;20200;-81
2023/05/27 05:05:15;;;;;;;17.67;6.93;;;;;;;;;;5031367;28;20287;-82
2023/05/27 05:07:43;;;;;;;19.50;6.90;;;;;;;;;;5031951;28;20302;-83
2023/05/27 05:10:11;;;;;;;15.43;6.83;;;;;;;;;;5031954;28;20299;-82
2023/05/27 05:12:38;;;;;;;17.83;6.47;;;;;;;;;;5032121;28;20651;-82
2023/05/27 05:15:06;;;;;;;18.83;6.57;;;;;;;;;;5043302;28;20200;-82
2023/05/27 05:17:33;;;;;;;17.73;6.80;;;;;;;;;;5051840;28;20279;-82
2023/05/27 05:20:01;;;;;;;20.73;6.83;;;;;;;;;;5051631;28;20202;-81
2023/05/27 05:22:29;;;;;;;16.70;6.13;;;;;;;;;;5051426;28;20231;-82
2023/05/27 05:24:56;;;;;;;16.47;6.23;;;;;;;;;;5051366;28;20314;-83
2023/05/27 05:27:23;;;;;;;16.83;6.43;;;;;;;;;;5051457;28;20312;-82
2023/05/27 05:29:51;;;;;;;19.57;6.33;;;;;;;;;;5050903;28;20223;-83
2023/05/27 05:32:18;;;;;;;15.90;6.47;;;;;;;;;;5051258;28;20196;-82
2023/05/27 05:34:45;;;;;;;17.67;6.07;;;;;;;;;;5030429;28;20319;-82
2023/05/27 05:37:12;;;;;;;16.93;6.23;;;;;;;;;;5031031;28;20734;-82
2023/05/27 05:39:43;;;;;;;12.77;5.60;;;;;;;;;;5031510;28;20226;-82
2023/05/27 05:42:10;;;;;;;15.23;5.60;;;;;;;;;;5031463;28;20196;-83
2023/05/27 05:44:37;;;;;;;18.50;6.10;;;;;;;;;;5030884;28;20260;-82
2023/05/27 05:47:05;;;;;;;16.27;5.67;;;;;;;;;;5031183;28;20655;-83
2023/05/27 05:49:32;;;;;;;18.23;5.90;;;;;;;;;;5030216;28;20212;-82
2023/05/27 05:51:59;;;;;;;15.90;5.97;;;;;;;;;;5031645;28;20228;-83
2023/05/27 05:54:26;;;;;;;17.43;5.73;;;;;;;;;;5031589;28;20222;-83
2023/05/27 05:56:55;;;;;;;18.40;6.30;;;;;;;;;;5030443;28;20590;-83
2023/05/27 05:59:22;;;;;;;14.70;5.27;;;;;;;;;;5030524;28;20201;-83
2023/05/27 06:01:49;;;;;;;15.90;5.60;;;;;;;;;;5031021;28;20295;-83
2023/05/27 06:04:17;;;;;;;14.73;5.88;;;;;;;;;;5030719;28;20248;-83
2023/05/27 06:06:44;;;;;;;14.15;5.50;;;;;;;;;;5030464;28;20252;-82
2023/05/27 06:09:11;;;;;;;14.68;5.93;;;;;;;;;;5030730;28;20683;-80
2023/05/27 06:11:38;;;;;;;12.75;5.47;;;;;;;;;;5030549;28;20235;-81
2023/05/27 06:14:07;;;;;;;15.27;5.63;;;;;;;;;;5034334;28;20725;-80
2023/05/27 06:16:36;;;;;;;14.70;5.68;;;;;;;;;;5051074;28;20233;-81
2023/05/27 06:19:03;;;;;;;15.05;5.15;;;;;;;;;;5050931;28;20214;-82
2023/05/27 06:21:32;;;;;;;13.45;5.28;;;;;;;;;;5050706;28;20661;-82
2023/05/27 06:23:59;;;;;;;11.82;5.35;;;;;;;;;;5050803;28;20235;-81
2023/05/27 06:26:27;;;;;;;18.30;5.63;;;;;;;;;;5050508;28;20604;-81
2023/05/27 06:28:54;;;;;;;12.82;5.10;;;;;;;;;;5051176;28;20202;-81
2023/05/27 06:31:22;;;;;;;11.35;4.53;;;;;;;;;;5050318;28;20302;-82
2023/05/27 06:33:50;;;;;;;14.07;5.28;;;;;;;;;;5050325;28;20327;-81
2023/05/27 06:36:18;;;;;;;13.68;5.50;;;;;;;;;;5030351;28;20266;-81
2023/05/27 06:38:45;;;;;;;15.52;5.82;;;;;;;;;;5030974;28;20624;-81
2023/05/27 06:41:13;;;;;;;11.25;5.22;;;;;;;;;;5030378;28;20228;-82
2023/05/27 06:43:40;;;;;;;11.90;5.15;;;;;;;;;;5030619;28;20720;-81
2023/05/27 06:46:07;;;;;;;14.27;5.20;;;;;;;;;;5030523;28;20223;-81
2023/05/27 06:48:35;;;;;;;13.35;5.47;;;;;;;;;;5030870;28;20243;-82
2023/05/27 06:51:03;;;;;;;12.60;4.95;;;;;;;;;;5030781;28;20295;-82
2023/05/27 06:53:30;;;;;;;13.07;5.38;;;;;;;;;;5030456;28;20299;-82
2023/05/27 06:55:57;;;;;;;9.77;4.75;;;;;;;;;;5030133;28;20282;-81
2023/05/27 06:58:24;;;;;;;12.30;5.13;;;;;;;;;;5029823;28;20197;-82
2023/05/27 07:00:51;;;;;;;14.20;5.35;;;;;;;;;;5030610;28;20251;-81
2023/05/27 07:03:19;;;;;;;14.77;5.65;;;;;;;;;;5030848;28;20274;-82
2023/05/27 07:05:47;;;;;;;11.57;4.60;;;;;;;;;;5030322;28;20283;-81
2023/05/27 07:08:15;;;;;;;12.55;5.10;;;;;;;;;;5032305;28;20196;-80
2023/05/27 07:10:42;;;;;;;13.30;5.20;;;;;;;;;;5033404;28;20212;-82
2023/05/27 07:13:10;;;;;;;11.70;4.88;;;;;;;;;;5034275;28;20291;-83
2023/05/27 07:15:37;;;;;;;12.48;5.18;;;;;;;;;;5050225;28;20200;-82
2023/05/27 07:18:04;;;;;;;15.70;5.18;;;;;;;;;;5053920;28;20278;-81
2023/05/27 07:20:32;;;;;;;12.48;5.00;;;;;;;;;;5054223;28;20224;-81
2023/05/27 07:23:00;;;;;;;12.68;5.20;;;;;;;;;;5054498;28;20673;-82
2023/05/27 07:25:28;;;;;;;12.82;5.13;;;;;;;;;;5053467;28;20231;-82
2023/05/27 07:27:55;;;;;;;16.27;5.53;;;;;;;;;;5052639;28;20196;-81
2023/05/27 07:30:22;;;;;;;11.38;5.32;;;;;;;;;;5021395;28;20252;-80
2023/05/27 07:32:50;;;;;;;13.52;5.10;;;;;;;;;;5034096;28;20251;-81
2023/05/27 07:35:17;;;;;;;12.60;5.60;;;;;;;;;;5015409;28;20240;-81
2023/05/27 07:37:44;;;;;;;13.73;4.70;;;;;;;;;;5014073;28;20202;-81
2023/05/27 07:40:13;;;;;;;15.20;5.40;;;;;;;;;;5013256;28;20317;-81
2023/05/27 07:42:40;;;;;;;13.25;5.72;;;;;;;;;;5018865;28;20288;-81
2023/05/27 07:45:08;;;;;;;10.65;5.05;;;;;;;;;;5013499;28;20242;-81
2023/05/27 07:47:35;;;;;;;12.80;4.95;;;;;;;;;;5015150;28;20282;-81
2023/05/27 07:50:03;;;;;;;11.57;4.85;;;;;;;;;;5033540;28;20288;-81
2023/05/27 07:52:30;;;;;;;12.73;4.90;;;;;;;;;;5031994;28;20231;-81
2023/05/27 07:54:57;;;;;;;10.77;4.88;;;;;;;;;;5026974;28;20287;-81
2023/05/27 07:57:26;;;;;;;13.13;4.93;;;;;;;;;;5033251;28;20196;-80
2023/05/27 07:59:53;;;;;;;16.13;5.50;;;;;;;;;;5033324;28;20243;-80
2023/05/27 08:02:21;;;;;;;11.70;4.75;;;;;;;;;;5033274;28;20291;-81
2023/05/27 08:04:48;;;;;;;13.10;5.20;;;;;;;;;;5030683;28;20335;-81
2023/05/27 08:07:16;;;;;;;12.45;5.20;;;;;;;;;;5025305;28;20208;-81
2023/05/27 08:09:43;;;;;;;14.82;5.40;;;;;;;;;;5031721;28;20200;-82
2023/05/27 08:12:10;;;;;;;11.27;5.30;;;;;;;;;;5031239;28;20243;-81
2023/05/27 08:14:40;;;;;;;9.30;5.10;;;;;;;;;;5039792;28;20196;-80
2023/05/27 08:17:07;;;;;;;8.68;4.72;;;;;;;;;;5034198;28;20208;-81
2023/05/27 08:19:34;;;;;;;13.25;4.75;;;;;;;;;;5029031;28;20200;-88
2023/05/27 08:22:03;;;;;;;10.07;4.55;;;;;;;;;;5015925;28;20211;-87
2023/05/27 08:24:31;;;;;;;10.00;4.50;;;;;;;;;;5033612;28;20230;-88
2023/05/27 08:26:59;;;;;;;8.75;4.60;;;;;;;;;;5034266;28;20247;-88
2023/05/27 08:29:27;;;;;;;11.00;5.00;;;;;;;;;;5034687;28;20189;-88
2023/05/27 08:31:56;;;;;;;12.93;4.97;;;;;;;;;;5034594;28;20203;-87
2023/05/27 08:34:23;;;;;;;12.38;5.32;;;;;;;;;;5034396;28;20238;-89
2023/05/27 08:36:50;;;;;;;13.10;5.22;;;;;;;;;;5034297;28;20192;-88
2023/05/27 08:39:18;;;;;;;11.13;5.05;;;;;;;;;;5039880;28;20264;-88
2023/05/27 08:41:45;;;;;;;11.40;4.70;;;;;;;;;;5042030;28;20243;-87
2023/05/27 08:44:12;;;;;;;10.70;5.00;;;;;;;;;;5037968;28;20717;-88
2023/05/27 08:46:41;;;;;;;10.98;5.10;;;;;;;;;;5036188;28;20188;-88
2023/05/27 08:49:09;;;;;;;14.40;5.10;;;;;;;;;;5034445;28;20326;-88
2023/05/27 08:51:40;;;;;;;12.57;4.90;;;;;;;;;;5034104;28;20272;-88
2023/05/27 08:54:07;;;;;;;10.88;5.18;;;;;;;;;;5033420;28;20196;-88
2023/05/27 08:56:35;;;;;;;10.88;5.10;;;;;;;;;;5033916;28;20243;-86
2023/05/27 08:59:02;;;;;;;9.07;4.93;;;;;;;;;;5033772;28;20617;-86
2023/05/27 09:01:31;;;;;;;12.13;5.10;;;;;;;;;;5033792;28;20279;-88
2023/05/27 09:03:58;;;;;;;12.25;5.20;;;;;;;;;;5033212;28;20196;-86
2023/05/27 09:06:27;;;;;;;14.10;5.60;;;;;;;;;;5032666;28;20223;-86
2023/05/27 09:08:54;;;;;;;12.85;5.13;;;;;;;;;;5032955;28;20224;-88
2023/05/27 09:11:23;;;;;;;12.35;5.72;;;;;;;;;;5034836;28;20572;-88
2023/05/27 09:13:50;;;;;;;10.02;5.43;;;;;;;;;;5036489;28;20239;-89
2023/05/27 09:16:21;;;;;;;12.60;5.78;;;;;;;;;;5053789;28;20240;-88
2023/05/27 09:18:48;;;;;;;11.23;5.20;;;;;;;;;;5055128;28;20207;-88
2023/05/27 09:21:16;;;;;;;11.70;5.00;;;;;;;;;;5054436;28;20298;-89
2023/05/27 09:23:44;;;;;;;14.35;6.00;;;;;;;;;;5044978;28;20204;-89
2023/05/27 09:26:13;;;;;;;10.77;5.43;;;;;;;;;;5033574;28;21299;-88
2023/05/27 09:28:40;;;;;;;11.20;5.10;;;;;;;;;;5033492;28;20212;-88
2023/05/27 09:31:08;;;;;;;9.48;5.43;;;;;;;;;;5031842;28;20583;-88
2023/05/27 09:33:35;;;;;;;14.10;4.82;;;;;;;;;;5041509;28;20311;-88
2023/05/27 09:36:03;;;;;;;9.75;5.30;;;;;;;;;;5033093;28;20205;-88
2023/05/27 09:38:30;;;;;;;10.63;5.72;;;;;;;;;;5033546;28;20617;-87
2023/05/27 09:40:59;;;;;;;10.82;5.50;;;;;;;;;;5049911;28;20196;-88
2023/05/27 09:43:26;;;;;;;9.90;5.05;;;;;;;;;;5053300;28;20194;-88
2023/05/27 09:45:54;;;;;;;13.60;5.15;;;;;;;;;;5053124;28;20249;-88
2023/05/27 09:48:21;;;;;;;10.95;5.22;;;;;;;;;;5052751;28;20287;-87
2023/05/27 09:50:50;;;;;;;11.57;5.28;;;;;;;;;;5052807;28;20249;-88
2023/05/27 09:53:18;;;;;;;11.48;5.25;;;;;;;;;;5039402;28;20242;-87
2023/05/27 09:55:45;;;;;;;9.63;5.22;;;;;;;;;;5032565;28;20231;-89
2023/05/27 09:58:15;;;;;;;10.35;5.70;;;;;;;;;;5033642;28;20232;-88
2023/05/27 10:00:42;;;;;;;10.38;5.70;;;;;;;;;;5033400;28;20283;-88
2023/05/27 10:03:10;;;;;;;9.38;5.20;;;;;;;;;;5033606;28;20291;-90
2023/05/27 10:05:37;;;;;;;12.48;5.30;;;;;;;;;;5043007;28;20692;-88
2023/05/27 10:08:05;;;;;;;11.43;5.80;;;;;;;;;;5053110;28;20745;-88
2023/05/27 10:10:32;;;;;;;8.73;5.40;;;;;;;;;;5052747;28;20227;-87
2023/05/27 10:13:01;;;;;;;18.13;5.93;;;;;;;;;;5052689;28;20382;-87
2023/05/27 10:15:31;;;;;;;9.57;5.38;;;;;;;;;;5037756;28;20537;-87
2023/05/27 10:17:59;;;;;;;9.27;5.10;;;;;;;;;;5032970;28;20207;-87
2023/05/27 10:20:28;;;;;;;10.68;5.10;;;;;;;;;;5032698;28;20228;-87
2023/05/27 10:22:56;;;;;;;13.50;5.75;;;;;;;;;;5032426;28;20219;-88
2023/05/27 10:25:23;;;;;;;10.63;5.63;;;;;;;;;;5032153;28;20213;-87
2023/05/27 10:27:51;;;;;;;9.10;5.13;;;;;;;;;;5032508;28;20227;-88
2023/05/27 10:30:18;;;;;;;11.52;5.45;;;;;;;;;;5032950;28;20196;-88
2023/05/27 10:32:49;;;;;;;9.90;4.93;;;;;;;;;;5032854;28;20641;-87
2023/05/27 10:35:17;;;;;;;11.98;5.70;;;;;;;;;;5032207;28;20239;-89
2023/05/27 10:37:45;;;;;;;10.45;5.22;;;;;;;;;;5033366;28;20656;-90
2023/05/27 10:40:13;;;;;;;8.30;4.72;;;;;;;;;;5033273;28;20192;-90
2023/05/27 10:42:40;;;;;;;13.25;5.82;;;;;;;;;;5035874;28;20207;-89
2023/05/27 10:45:08;;;;;;;10.30;5.43;;;;;;;;;;5037217;28;20311;-89
2023/05/27 10:47:39;;;;;;;10.23;5.55;;;;;;;;;;5036701;28;20223;-90
2023/05/27 10:50:14;;;;;;;11.68;5.10;;;;;;;;;;5036982;28;20199;-88
2023/05/27 10:52:42;;;;;;;10.18;5.25;;;;;;;;;;5036369;28;20688;-90
2023/05/27 10:55:09;;;;;;;6.95;5.25;;;;;;;;;;5037093;28;20201;-89
2023/05/27 10:57:37;;;;;;;8.77;5.13;;;;;;;;;;5036725;28;20589;-88
2023/05/27 11:00:08;;;;;;;7.93;5.10;;;;;;;;;;5036383;28;20287;-88
2023/05/27 11:02:36;;;;;;;10.13;5.63;;;;;;;;;;5036113;28;20215;-88
2023/05/27 11:05:10;;;;;;;7.07;5.32;;;;;;;;;;5036318;28;20262;-91
2023/05/27 11:07:40;;;;;;;10.55;5.63;;;;;;;;;;5035980;28;20724;-88
2023/05/27 11:10:09;;;;;;;9.50;5.38;;;;;;;;;;5036433;28;20679;-89
2023/05/27 11:12:36;;;;;;;8.75;5.10;;;;;;;;;;5036352;28;20203;-89
2023/05/27 11:15:04;;;;;;;9.82;5.15;;;;;;;;;;5036371;28;20232;-90
2023/05/27 11:17:31;;;;;;;8.18;5.30;;;;;;;;;;5035286;28;20636;-90
2023/05/27 11:19:59;;;;;;;8.82;5.57;;;;;;;;;;5036393;28;20287;-88
2023/05/27 11:22:26;;;;;;;10.95;6.03;;;;;;;;;;5038612;28;20197;-88
2023/05/27 11:24:58;;;;;;;8.15;5.40;;;;;;;;;;5041689;28;20220;-89
2023/05/27 11:27:26;;;;;;;9.50;5.93;;;;;;;;;;5045087;28;20227;-92
2023/05/27 11:29:53;;;;;;;10.10;6.00;;;;;;;;;;5045542;28;20192;-93
2023/05/27 11:32:21;;;;;;;10.27;5.90;;;;;;;;;;5043666;28;20184;-92
2023/05/27 11:34:49;;;;;;;8.20;5.78;;;;;;;;;;5041874;28;20233;-92
2023/05/27 11:37:16;;;;;;;10.32;5.85;;;;;;;;;;5039819;28;20216;-93
2023/05/27 11:39:51;;;;;;;8.80;5.50;;;;;;;;;;5037099;28;20227;-92
2023/05/27 11:42:23;;;;;;;7.47;5.00;;;;;;;;;;5037489;28;20671;-92
2023/05/27 11:44:54;;;;;;;8.93;5.65;;;;;;;;;;5037623;28;20287;-92
2023/05/27 11:47:22;;;;;;;7.03;4.97;;;;;;;;;;5036093;28;20628;-92
2023/05/27 11:49:50;;;;;;;9.52;5.72;;;;;;;;;;5037223;28;20216;-91
2023/05/27 11:52:17;;;;;;;6.93;5.43;;;;;;;;;;5037696;28;20200;-92
2023/05/27 11:54:45;;;;;;;11.73;5.15;;;;;;;;;;5036175;28;20705;-91
2023/05/27 11:57:13;;;;;;;9.07;5.22;;;;;;;;;;5036289;28;20216;-90
2023/05/27 11:59:41;;;;;;;9.07;5.82;;;;;;;;;;5036003;28;20212;-91
2023/05/27 12:02:08;;;;;;;10.25;5.53;;;;;;;;;;5035732;28;20201;-91
2023/05/27 12:04:36;;;;;;;9.10;5.65;;;;;;;;;;5036175;28;20220;-90
2023/05/27 12:07:03;;;;;;;8.98;5.50;;;;;;;;;;5035820;28;20323;-90
2023/05/27 12:09:30;;;;;;;9.68;6.18;;;;;;;;;;5035605;28;20280;-90
2023/05/27 12:11:57;;;;;;;14.23;5.60;;;;;;;;;;5036189;28;20204;-90
2023/05/27 12:14:24;;;;;;;7.30;5.45;;;;;;;;;;5035588;28;20280;-90
2023/05/27 12:16:53;;;;;;;8.98;5.47;;;;;;;;;;5035443;28;20211;-90
2023/05/27 12:19:20;;;;;;;10.63;5.53;;;;;;;;;;5035792;28;20241;-90
2023/05/27 12:21:48;;;;;;;7.25;5.20;;;;;;;;;;5035779;28;20223;-90
2023/05/27 12:24:15;;;;;;;7.60;5.45;;;;;;;;;;5036008;28;20230;-91
2023/05/27 12:26:42;;;;;;;7.25;5.20;;;;;;;;;;5035725;28;20232;-90
2023/05/27 12:29:09;;;;;;;10.82;5.88;;;;;;;;;;5035103;28;20238;-90
2023/05/27 12:31:37;;;;;;;7.28;5.60;;;;;;;;;;5035501;28;20279;-90
2023/05/27 12:34:05;;;;;;;8.30;5.70;;;;;;;;;;5035494;28;20675;-89
2023/05/27 12:36:33;;;;;;;6.78;5.03;;;;;;;;;;5035422;28;20200;-90
2023/05/27 12:39:00;;;;;;;8.32;5.68;;;;;;;;;;5035879;28;20326;-90
2023/05/27 12:41:27;;;;;;;8.70;5.18;;;;;;;;;;5035812;28;20204;-90
2023/05/27 12:43:55;;;;;;;7.07;4.68;;;;;;;;;;5035396;28;20199;-88
2023/05/27 12:46:22;;;;;;;9.05;5.40;;;;;;;;;;5037361;28;20310;-89
2023/05/27 12:48:49;;;;;;;9.23;5.07;;;;;;;;;;5038150;28;20216;-90
2023/05/27 12:51:18;;;;;;;9.20;5.53;;;;;;;;;;5038244;28;20238;-89
2023/05/27 12:53:45;;;;;;;8.65;5.15;;;;;;;;;;5035155;28;20196;-90
2023/05/27 12:56:12;;;;;;;8.95;5.45;;;;;;;;;;5035115;28;20220;-90
2023/05/27 12:58:40;;;;;;;9.52;5.95;;;;;;;;;;5034503;28;20220;-91
2023/05/27 13:01:07;;;;;;;8.15;5.15;;;;;;;;;;5035101;28;20216;-90
2023/05/27 13:03:34;;;;;;;8.32;4.85;;;;;;;;;;5034826;28;20291;-90
2023/05/27 13:06:01;;;;;;;7.30;5.10;;;;;;;;;;5034394;28;20654;-90
2023/05/27 13:08:30;;;;;;;8.45;4.95;;;;;;;;;;5034451;28;20242;-89
2023/05/27 13:10:57;;;;;;;8.95;5.55;;;;;;;;;;5034938;28;20228;-90
2023/05/27 13:13:24;;;;;;;8.93;5.25;;;;;;;;;;5034450;28;20695;-90
2023/05/27 13:15:51;;;;;;;9.57;5.40;;;;;;;;;;5053010;28;20265;-89
2023/05/27 13:18:18;;;;;;;8.13;5.25;;;;;;;;;;5054613;28;20227;-90
2023/05/27 13:20:46;;;;;;;9.20;5.47;;;;;;;;;;5053170;28;20231;-90
2023/05/27 13:23:13;;;;;;;8.02;5.47;;;;;;;;;;5053011;28;20234;-90
2023/05/27 13:25:41;;;;;;;7.18;5.07;;;;;;;;;;5054245;28;20224;-90
2023/05/27 13:28:09;;;;;;;7.65;5.30;;;;;;;;;;5054919;28;20216;-90
2023/05/27 13:30:36;;;;;;;8.98;5.45;;;;;;;;;;5055230;28;20265;-91
2023/05/27 13:33:03;;;;;;;6.60;5.25;;;;;;;;;;5054554;28;20234;-92
2023/05/27 13:35:30;;;;;;;8.07;4.68;;;;;;;;;;5055264;28;20891;-91
2023/05/27 13:38:00;;;;;;;11.40;5.35;;;;;;;;;;5021078;28;20209;-89
2023/05/27 13:40:27;;;;;;;6.00;4.47;;;;;;;;;;5014696;28;20275;-89
2023/05/27 13:42:55;;;;;;;6.40;4.60;;;;;;;;;;5014888;28;20220;-89
2023/05/27 13:45:23;;;;;;;7.68;4.97;;;;;;;;;;5015229;28;20185;-89
2023/05/27 13:47:50;;;;;;;8.07;5.20;;;;;;;;;;5014234;28;20197;-90
2023/05/27 13:50:17;;;;;;;8.07;5.35;;;;;;;;;;5014289;28;20201;-89
2023/05/27 13:52:46;;;;;;;6.45;5.40;;;;;;;;;;5014224;28;20283;-89
2023/05/27 13:55:13;;;;;;;8.07;4.93;;;;;;;;;;5014826;28;20205;-89
2023/05/27 13:57:40;;;;;;;9.00;5.28;;;;;;;;;;5014408;28;20209;-90
2023/05/27 14:00:10;;;;;;;8.20;4.90;;;;;;;;;;5014175;28;20195;-89
2023/05/27 14:02:37;;;;;;;7.63;4.80;;;;;;;;;;5013935;28;20239;-89
2023/05/27 14:05:04;;;;;;;8.60;4.60;;;;;;;;;;5012680;28;20670;-90
2023/05/27 14:07:32;;;;;;;7.68;4.50;;;;;;;;;;5025889;28;20646;-88
2023/05/27 14:09:59;;;;;;;8.52;5.40;;;;;;;;;;5035080;28;20216;-89
2023/05/27 14:12:26;;;;;;;6.65;4.63;;;;;;;;;;5034732;28;20228;-89
2023/05/27 14:14:53;;;;;;;7.60;5.13;;;;;;;;;;5034699;28;20287;-89
2023/05/27 14:17:22;;;;;;;8.48;4.35;;;;;;;;;;5036401;28;20278;-88
2023/05/27 14:19:49;;;;;;;6.15;4.68;;;;;;;;;;5037640;28;20655;-89
2023/05/27 14:22:17;;;;;;;8.02;5.25;;;;;;;;;;5037395;28;20200;-91
2023/05/27 14:24:44;;;;;;;8.25;5.07;;;;;;;;;;5037468;28;20275;-90
2023/05/27 14:27:11;;;;;;;6.20;4.85;;;;;;;;;;5037501;28;20323;-91
2023/05/27 14:29:38;;;;;;;9.02;5.30;;;;;;;;;;5037600;28;20287;-90
2023/05/27 14:32:06;;;;;;;7.38;5.13;;;;;;;;;;5037400;28;20283;-90
2023/05/27 14:34:35;;;;;;;8.13;5.18;;;;;;;;;;5037287;28;20231;-90
2023/05/27 14:37:02;;;;;;;7.13;5.05;;;;;;;;;;5037316;28;20200;-89